createdAt,value
2019-03-18T00:01:18.833Z,5.50
2019-03-18T00:03:49.946Z,8.57
2019-03-18T00:06:20.854Z,8.57
2019-03-18T00:08:51.763Z,6.77
2019-03-18T00:11:22.081Z,5.37
2019-03-18T00:13:54.002Z,8.00
2019-03-18T00:16:24.882Z,7.97
2019-03-18T00:18:55.822Z,5.63
2019-03-18T00:21:26.706Z,6.23
2019-03-18T00:23:57.670Z,9.10
2019-03-18T00:26:28.530Z,6.57
2019-03-18T00:28:59.574Z,7.40
2019-03-18T00:31:30.686Z,6.10
2019-03-18T00:34:01.578Z,5.90
2019-03-18T00:36:32.446Z,8.20
2019-03-18T00:39:03.851Z,11.33
2019-03-18T00:41:34.786Z,6.10
2019-03-18T00:44:05.694Z,5.93
2019-03-18T00:46:36.582Z,6.37
2019-03-18T00:49:07.554Z,7.33
2019-03-18T00:51:38.507Z,6.90
2019-03-18T00:54:09.506Z,4.70
2019-03-18T00:56:40.490Z,6.30
2019-03-18T00:59:11.402Z,6.07
2019-03-18T01:01:42.330Z,6.07
2019-03-18T01:04:13.237Z,6.37
2019-03-18T01:06:44.202Z,9.90
2019-03-18T01:09:15.118Z,6.03
2019-03-18T01:11:45.997Z,7.43
2019-03-18T01:14:16.882Z,5.37
2019-03-18T01:16:47.771Z,5.07
2019-03-18T01:19:18.742Z,5.03
2019-03-18T01:21:49.698Z,6.67
2019-03-18T01:24:20.671Z,6.53
2019-03-18T01:26:51.618Z,4.80
2019-03-18T01:29:22.562Z,6.50
2019-03-18T01:31:53.523Z,4.67
2019-03-18T01:34:24.422Z,5.80
2019-03-18T01:36:55.474Z,6.63
2019-03-18T01:39:26.382Z,4.00
2019-03-18T01:41:57.275Z,4.40
2019-03-18T01:44:28.254Z,2.63
2019-03-18T01:46:59.135Z,5.07
2019-03-18T01:49:30.078Z,6.27
2019-03-18T01:52:00.973Z,5.67
2019-03-18T01:54:31.922Z,6.03
2019-03-18T01:57:02.872Z,5.43
2019-03-18T01:59:33.850Z,5.00
2019-03-18T02:02:04.801Z,9.73
2019-03-18T02:04:35.718Z,10.03
2019-03-18T02:07:06.662Z,6.87
2019-03-18T02:09:37.610Z,8.90
2019-03-18T02:12:08.640Z,3.30
2019-03-18T02:14:39.586Z,6.27
2019-03-18T02:17:10.638Z,8.87
2019-03-18T02:19:41.889Z,4.93
2019-03-18T02:22:12.948Z,6.20
2019-03-18T02:24:43.825Z,3.57
2019-03-18T02:27:14.866Z,5.30
2019-03-18T02:29:45.810Z,3.97
2019-03-18T02:32:16.775Z,4.47
2019-03-18T02:34:48.898Z,5.33
2019-03-18T02:37:19.904Z,5.77
2019-03-18T02:39:50.874Z,3.70
2019-03-18T02:42:21.832Z,5.97
2019-03-18T02:44:52.783Z,3.37
2019-03-18T02:47:23.749Z,5.77
2019-03-18T02:49:54.704Z,4.50
2019-03-18T02:52:25.679Z,4.57
2019-03-18T02:54:56.635Z,3.20
2019-03-18T02:57:27.579Z,2.90
2019-03-18T02:59:58.555Z,4.00
2019-03-18T03:02:29.511Z,6.63
2019-03-18T03:05:00.623Z,10.30
2019-03-18T03:07:31.517Z,6.53
2019-03-18T03:10:02.595Z,5.27
2019-03-18T03:12:33.602Z,15.03
2019-03-18T03:15:04.806Z,8.80
2019-03-18T03:17:35.751Z,6.33
2019-03-18T03:20:07.279Z,8.43
2019-03-18T03:22:39.318Z,7.00
2019-03-18T03:25:10.628Z,5.03
2019-03-18T03:27:41.571Z,8.47
2019-03-18T03:30:12.628Z,4.40
2019-03-18T03:32:43.606Z,4.97
2019-03-18T03:35:14.753Z,3.87
2019-03-18T03:37:45.838Z,4.27
2019-03-18T03:40:16.795Z,8.10
2019-03-18T03:42:47.747Z,6.53
2019-03-18T03:45:18.795Z,4.67
2019-03-18T03:47:49.746Z,5.53
2019-03-18T03:50:20.698Z,5.73
2019-03-18T03:52:51.676Z,9.17
2019-03-18T03:55:22.626Z,7.83
2019-03-18T03:57:53.706Z,9.90
2019-03-18T04:00:24.665Z,5.77
2019-03-18T04:02:55.753Z,4.93
2019-03-18T04:05:26.703Z,5.17
2019-03-18T04:07:57.689Z,4.87
2019-03-18T04:10:28.631Z,6.30
2019-03-18T04:13:00.013Z,4.30
2019-03-18T04:15:30.956Z,3.67
2019-03-18T04:18:01.972Z,3.50
2019-03-18T04:20:32.929Z,5.13
2019-03-18T04:23:03.894Z,4.77
2019-03-18T04:25:34.848Z,4.30
2019-03-18T04:28:05.822Z,6.00
2019-03-18T04:30:36.774Z,6.67
2019-03-18T04:33:07.747Z,3.70
2019-03-18T04:35:38.695Z,5.13
2019-03-18T04:38:09.642Z,3.53
2019-03-18T04:40:40.591Z,3.47
2019-03-18T04:43:11.578Z,3.67
2019-03-18T04:45:42.531Z,4.57
2019-03-18T04:48:13.506Z,3.17
2019-03-18T04:50:44.393Z,3.30
2019-03-18T04:53:15.302Z,2.53
2019-03-18T04:55:46.173Z,3.43
2019-03-18T04:58:17.486Z,2.23
2019-03-18T05:00:47.762Z,5.33
2019-03-18T05:03:18.469Z,2.73
2019-03-18T05:05:49.360Z,6.27
2019-03-18T05:08:20.382Z,3.73
2019-03-18T05:10:51.451Z,4.57
2019-03-18T05:13:22.438Z,2.90
2019-03-18T05:15:53.402Z,3.27
2019-03-18T05:18:24.471Z,5.90
2019-03-18T05:20:55.779Z,3.93
2019-03-18T05:23:26.062Z,4.67
2019-03-18T05:25:56.746Z,5.90
2019-03-18T05:28:27.743Z,8.13
2019-03-18T05:31:00.671Z,6.17
2019-03-18T05:33:32.279Z,4.07
2019-03-18T05:36:03.456Z,6.13
2019-03-18T05:38:34.122Z,5.53
2019-03-18T05:41:04.890Z,4.43
2019-03-18T05:43:35.879Z,6.17
2019-03-18T05:46:09.507Z,5.73
2019-03-18T05:48:41.093Z,4.53
2019-03-18T05:51:11.995Z,5.93
2019-03-18T05:53:42.990Z,5.97
2019-03-18T05:56:13.974Z,5.40
2019-03-18T05:58:45.005Z,5.40
2019-03-18T06:01:16.042Z,4.43
2019-03-18T06:03:47.015Z,7.27
2019-03-18T06:06:17.962Z,7.07
2019-03-18T06:08:48.866Z,5.83
2019-03-18T06:11:20.172Z,7.70
2019-03-18T06:13:51.281Z,8.67
2019-03-18T06:16:22.402Z,8.87
2019-03-18T06:18:53.588Z,5.23
2019-03-18T06:21:24.819Z,6.67
2019-03-18T06:23:56.506Z,7.77
2019-03-18T06:26:26.877Z,5.70
2019-03-18T06:28:57.650Z,6.10
2019-03-18T06:31:28.606Z,8.43
2019-03-18T06:33:59.535Z,6.00
2019-03-18T06:36:30.494Z,5.20
2019-03-18T06:39:01.478Z,3.83
2019-03-18T06:41:32.702Z,4.67
2019-03-18T06:44:03.681Z,4.20
2019-03-18T06:46:34.630Z,7.00
2019-03-18T06:49:05.582Z,6.37
2019-03-18T06:51:36.571Z,4.83
2019-03-18T06:54:07.529Z,4.40
2019-03-18T06:56:38.519Z,4.67
2019-03-18T06:59:09.474Z,5.60
2019-03-18T07:01:40.358Z,7.87
2019-03-18T07:04:11.286Z,5.70
2019-03-18T07:06:42.162Z,5.30
2019-03-18T07:09:13.040Z,9.00
2019-03-18T07:11:44.030Z,8.47
2019-03-18T07:14:14.986Z,6.63
2019-03-18T07:16:45.946Z,4.90
2019-03-18T07:19:16.926Z,4.30
2019-03-18T07:21:47.887Z,4.33
2019-03-18T07:24:18.849Z,4.77
2019-03-18T07:26:49.808Z,3.70
2019-03-18T07:29:20.778Z,12.93
2019-03-18T07:31:51.854Z,3.93
2019-03-18T07:34:22.832Z,4.37
2019-03-18T07:36:53.822Z,4.33
2019-03-18T07:39:24.758Z,3.23
2019-03-18T07:41:55.717Z,4.57
2019-03-18T07:44:26.686Z,3.90
2019-03-18T07:46:57.650Z,8.23
2019-03-18T07:49:27.990Z,5.87
2019-03-18T07:51:58.755Z,7.70
2019-03-18T07:54:33.105Z,3.40
2019-03-18T07:57:02.247Z,4.97
2019-03-18T07:59:33.222Z,5.03
2019-03-18T08:02:04.291Z,8.73
2019-03-18T08:04:37.735Z,7.57
2019-03-18T08:07:07.939Z,5.10
2019-03-18T08:09:38.912Z,7.20
2019-03-18T08:12:09.865Z,7.73
2019-03-18T08:14:41.014Z,5.70
2019-03-18T08:17:11.963Z,4.50
2019-03-18T08:19:43.067Z,4.87
2019-03-18T08:22:14.022Z,6.27
2019-03-18T08:24:44.910Z,5.00
2019-03-18T08:27:15.853Z,6.83
2019-03-18T08:29:48.546Z,3.80
2019-03-18T08:32:19.511Z,6.50
2019-03-18T08:34:49.862Z,5.63
2019-03-18T08:37:20.702Z,4.50
2019-03-18T08:39:51.658Z,4.23
2019-03-18T08:42:22.550Z,5.90
2019-03-18T08:44:53.586Z,4.27
2019-03-18T08:47:24.539Z,7.77
2019-03-18T08:49:55.827Z,3.10
2019-03-18T08:52:26.798Z,6.87
2019-03-18T08:54:58.074Z,2.93
2019-03-18T08:57:30.916Z,3.80
2019-03-18T09:00:01.611Z,5.40
2019-03-18T09:02:32.621Z,5.10
2019-03-18T09:05:03.606Z,3.50
2019-03-18T09:07:34.570Z,4.43
2019-03-18T09:10:05.956Z,2.30
2019-03-18T09:12:36.903Z,5.20
2019-03-18T09:15:08.015Z,5.93
2019-03-18T09:17:40.135Z,3.90
2019-03-18T09:20:11.612Z,4.20
2019-03-18T09:22:42.573Z,4.10
2019-03-18T09:25:13.641Z,4.20
2019-03-18T09:27:45.685Z,7.03
2019-03-18T09:30:16.658Z,3.67
2019-03-18T09:32:47.614Z,3.70
2019-03-18T09:35:18.582Z,6.40
2019-03-18T09:37:49.542Z,4.90
2019-03-18T09:40:20.602Z,7.93
2019-03-18T09:42:51.617Z,6.47
2019-03-18T09:45:22.509Z,2.40
2019-03-18T09:47:56.140Z,5.43
2019-03-18T09:50:26.062Z,3.97
2019-03-18T09:52:57.018Z,6.27
2019-03-18T09:55:27.986Z,5.37
2019-03-18T09:57:58.975Z,3.73
2019-03-18T10:00:29.261Z,3.93
2019-03-18T10:03:00.051Z,3.53
2019-03-18T10:05:31.002Z,8.50
2019-03-18T10:08:02.338Z,3.93
2019-03-18T10:10:33.307Z,2.40
2019-03-18T10:13:04.285Z,3.63
2019-03-18T10:15:35.157Z,1.70
2019-03-18T10:18:07.212Z,7.13
2019-03-18T10:20:38.158Z,4.07
2019-03-18T10:23:09.133Z,5.13
2019-03-18T10:25:40.084Z,2.33
2019-03-18T10:28:11.058Z,1.73
2019-03-18T10:30:41.998Z,1.87
2019-03-18T10:33:13.071Z,2.93
2019-03-18T10:35:44.018Z,2.23
2019-03-18T10:38:14.998Z,3.63
2019-03-18T10:40:45.875Z,5.10
2019-03-18T10:43:16.847Z,4.27
2019-03-18T10:45:47.798Z,5.27
2019-03-18T10:48:18.929Z,7.07
2019-03-18T10:50:49.918Z,5.53
2019-03-18T10:53:20.903Z,2.37
2019-03-18T10:55:51.850Z,6.23
2019-03-18T10:58:22.870Z,5.03
2019-03-18T11:00:53.928Z,3.60
2019-03-18T11:03:24.876Z,4.20
2019-03-18T11:05:55.839Z,6.00
2019-03-18T11:08:26.841Z,2.10
2019-03-18T11:10:57.071Z,3.87
2019-03-18T11:13:27.941Z,2.87
2019-03-18T11:16:11.446Z,3.53
2019-03-18T11:18:42.354Z,4.93
2019-03-18T11:21:13.234Z,2.67
2019-03-18T11:23:44.209Z,3.50
2019-03-18T11:26:15.102Z,5.97
2019-03-18T11:28:46.022Z,2.67
2019-03-18T11:31:16.978Z,5.17
2019-03-18T11:33:47.974Z,4.17
2019-03-18T11:36:18.922Z,7.20
2019-03-18T11:38:50.018Z,4.33
2019-03-18T11:41:20.966Z,5.50
2019-03-18T11:43:51.968Z,8.23
2019-03-18T11:46:22.859Z,4.00
2019-03-18T11:48:53.718Z,2.33
2019-03-18T11:51:24.628Z,5.53
2019-03-18T11:53:55.464Z,5.97
2019-03-18T11:56:26.388Z,1.80
2019-03-18T11:58:57.223Z,3.83
2019-03-18T12:01:28.094Z,4.43
2019-03-18T12:03:58.344Z,3.93
2019-03-18T12:06:29.146Z,3.40
2019-03-18T12:09:00.086Z,3.67
2019-03-18T12:11:30.970Z,4.50
2019-03-18T12:14:01.929Z,5.87
2019-03-18T12:16:32.806Z,2.30
2019-03-18T12:19:03.701Z,2.40
2019-03-18T12:21:34.606Z,1.87
2019-03-18T12:24:05.671Z,4.17
2019-03-18T12:26:36.630Z,2.57
2019-03-18T12:29:07.589Z,1.33
2019-03-18T12:31:38.551Z,4.00
2019-03-18T12:34:09.520Z,2.73
2019-03-18T12:36:40.481Z,3.40
2019-03-18T12:39:11.499Z,3.67
2019-03-18T12:41:42.525Z,3.63
2019-03-18T12:44:14.577Z,2.73
2019-03-18T12:46:45.445Z,2.70
2019-03-18T12:49:16.444Z,2.43
2019-03-18T12:51:47.390Z,2.77
2019-03-18T12:54:18.349Z,1.73
2019-03-18T12:56:48.653Z,2.97
2019-03-18T12:59:19.500Z,7.47
2019-03-18T13:01:50.446Z,3.20
2019-03-18T13:04:21.333Z,2.00
2019-03-18T13:06:52.362Z,4.10
2019-03-18T13:09:23.292Z,2.63
2019-03-18T13:11:54.269Z,2.07
2019-03-18T13:14:25.227Z,3.00
2019-03-18T13:16:56.235Z,6.67
2019-03-18T13:19:27.197Z,3.90
2019-03-18T13:21:58.274Z,2.17
2019-03-18T13:24:29.263Z,3.67
2019-03-18T13:27:00.346Z,1.70
2019-03-18T13:29:31.323Z,3.17
2019-03-18T13:32:02.206Z,2.20
2019-03-18T13:34:32.512Z,5.87
2019-03-18T13:37:03.275Z,3.33
2019-03-18T13:39:34.278Z,2.57
2019-03-18T13:42:05.564Z,2.80
2019-03-18T13:44:37.622Z,2.10
2019-03-18T13:47:09.008Z,2.23
2019-03-18T13:49:41.959Z,2.60
2019-03-18T13:52:12.915Z,2.67
2019-03-18T13:54:43.269Z,6.67
2019-03-18T13:57:14.022Z,10.43
2019-03-18T13:59:45.009Z,5.47
2019-03-18T14:02:15.890Z,4.70
2019-03-18T14:04:46.969Z,5.60
2019-03-18T14:07:17.913Z,7.20
2019-03-18T14:09:48.830Z,4.70
2019-03-18T14:12:19.789Z,2.87
2019-03-18T14:14:50.766Z,4.33
2019-03-18T14:17:21.714Z,5.50
2019-03-18T14:19:52.694Z,4.33
2019-03-18T14:22:23.645Z,2.73
2019-03-18T14:24:54.636Z,4.53
2019-03-18T14:27:25.581Z,7.33
2019-03-18T14:29:56.482Z,3.90
2019-03-18T14:32:27.357Z,2.90
2019-03-18T14:34:58.302Z,9.23
2019-03-18T14:37:29.379Z,9.07
2019-03-18T14:40:00.466Z,6.37
2019-03-18T14:42:31.436Z,7.47
2019-03-18T14:45:01.815Z,3.13
2019-03-18T14:47:32.598Z,3.10
2019-03-18T14:50:03.602Z,4.23
2019-03-18T14:52:33.914Z,7.47
2019-03-18T14:55:05.301Z,6.87
2019-03-18T14:57:36.254Z,5.93
2019-03-18T15:00:11.042Z,5.43
2019-03-18T15:02:41.994Z,4.30
2019-03-18T15:05:13.105Z,2.83
2019-03-18T15:07:44.091Z,4.87
2019-03-18T15:10:15.439Z,5.90
2019-03-18T15:12:46.422Z,2.90
2019-03-18T15:15:17.650Z,5.20
2019-03-18T15:17:48.613Z,4.67
2019-03-18T15:20:19.674Z,3.60
2019-03-18T15:22:50.795Z,5.13
2019-03-18T15:25:22.304Z,4.17
2019-03-18T15:27:53.370Z,5.73
2019-03-18T15:30:24.374Z,3.30
2019-03-18T15:32:55.635Z,5.50
2019-03-18T15:35:26.665Z,8.90
2019-03-18T15:37:57.654Z,10.73
2019-03-18T15:40:28.664Z,7.57
2019-03-18T15:42:59.640Z,6.57
2019-03-18T15:45:49.629Z,7.27
2019-03-18T15:48:20.711Z,3.97
2019-03-18T15:50:51.723Z,7.97
2019-03-18T15:53:22.706Z,7.03
2019-03-18T15:55:53.743Z,5.00
2019-03-18T15:58:24.714Z,5.87
2019-03-18T16:00:56.281Z,7.70
2019-03-18T16:03:27.498Z,5.40
2019-03-18T16:05:59.016Z,6.60
2019-03-18T16:08:31.299Z,6.23
2019-03-18T16:11:02.539Z,10.47
2019-03-18T16:13:33.923Z,4.93
2019-03-18T16:16:04.275Z,3.97
2019-03-18T16:18:36.251Z,6.30
2019-03-18T16:21:07.286Z,5.70
2019-03-18T16:23:38.272Z,4.77
2019-03-18T16:26:10.659Z,7.07
2019-03-18T16:28:41.918Z,4.17
2019-03-18T16:31:13.048Z,4.63
2019-03-18T16:33:44.066Z,6.03
2019-03-18T16:36:15.362Z,9.73
2019-03-18T16:38:46.524Z,5.23
2019-03-18T16:41:17.490Z,4.43
2019-03-18T16:43:48.907Z,6.13
2019-03-18T16:46:20.048Z,4.97
2019-03-18T16:48:51.135Z,8.70
2019-03-18T16:51:22.126Z,5.87
2019-03-18T16:53:53.462Z,10.00
2019-03-18T16:56:24.509Z,8.83
2019-03-18T16:58:55.386Z,8.77
2019-03-18T17:01:26.425Z,5.80
2019-03-18T17:03:57.366Z,7.87
2019-03-18T17:06:28.279Z,8.40
2019-03-18T17:08:59.282Z,8.73
2019-03-18T17:11:30.242Z,9.70
2019-03-18T17:14:01.311Z,7.97
2019-03-18T17:16:31.685Z,8.60
2019-03-18T17:19:02.428Z,10.43
2019-03-18T17:21:33.449Z,12.83
2019-03-18T17:24:03.805Z,8.10
2019-03-18T17:26:33.897Z,6.30
2019-03-18T17:29:04.669Z,9.03
2019-03-18T17:31:36.045Z,10.00
2019-03-18T17:34:06.115Z,10.60
2019-03-18T17:36:36.205Z,9.03
2019-03-18T17:39:07.986Z,7.23
2019-03-18T17:41:38.839Z,8.60
2019-03-18T17:44:09.206Z,7.93
2019-03-18T17:46:39.407Z,9.33
2019-03-18T17:49:09.597Z,8.17
2019-03-18T17:51:40.370Z,11.73
2019-03-18T17:54:11.729Z,9.77
2019-03-18T17:56:42.087Z,11.67
2019-03-18T17:59:12.603Z,8.13
2019-03-18T18:01:42.782Z,11.40
2019-03-18T18:04:13.474Z,11.63
2019-03-18T18:06:44.534Z,9.47
2019-03-18T18:09:15.584Z,8.53
2019-03-18T18:11:46.875Z,5.90
2019-03-18T18:14:17.890Z,9.20
2019-03-18T18:16:48.850Z,8.17
2019-03-18T18:19:30.207Z,5.40
2019-03-18T18:22:01.365Z,3.40
2019-03-18T18:24:32.660Z,5.53
2019-03-18T18:27:04.773Z,5.97
2019-03-18T18:29:35.445Z,10.63
2019-03-18T18:32:07.378Z,4.87
2019-03-18T18:34:38.515Z,6.13
2019-03-18T18:37:09.629Z,7.00
2019-03-18T18:39:40.810Z,8.87
2019-03-18T18:42:12.773Z,19.87
2019-03-18T18:44:43.733Z,12.60
2019-03-18T18:47:14.992Z,12.57
2019-03-18T18:49:45.941Z,12.53
2019-03-18T18:52:16.934Z,11.87
2019-03-18T18:54:47.877Z,9.00
2019-03-18T18:57:18.762Z,12.67
2019-03-18T18:59:49.794Z,7.70
2019-03-18T19:02:20.922Z,6.77
2019-03-18T19:04:51.881Z,9.90
2019-03-18T19:07:22.801Z,11.27
2019-03-18T19:09:53.830Z,11.40
2019-03-18T19:12:24.834Z,13.00
2019-03-18T19:14:57.546Z,13.37
2019-03-18T19:17:28.610Z,11.30
2019-03-18T19:19:59.669Z,11.80
2019-03-18T19:22:30.631Z,11.33
2019-03-18T19:25:01.515Z,7.40
2019-03-18T19:27:31.846Z,7.63
2019-03-18T19:30:02.626Z,8.37
2019-03-18T19:32:33.802Z,11.13
2019-03-18T19:35:04.913Z,6.90
2019-03-18T19:37:35.867Z,7.97
2019-03-18T19:40:08.254Z,9.87
2019-03-18T19:42:39.479Z,6.90
2019-03-18T19:45:11.980Z,11.53
2019-03-18T19:47:43.314Z,7.30
2019-03-18T19:50:15.912Z,7.50
2019-03-18T19:52:46.870Z,8.53
2019-03-18T19:55:18.751Z,8.57
2019-03-18T19:57:49.734Z,7.77
2019-03-18T20:00:21.545Z,10.97
2019-03-18T20:02:52.518Z,10.37
2019-03-18T20:05:23.514Z,7.03
2019-03-18T20:07:54.538Z,11.53
2019-03-18T20:10:25.442Z,5.97
2019-03-18T20:12:56.426Z,10.53
2019-03-18T20:15:27.418Z,11.40
2019-03-18T20:17:58.443Z,6.47
2019-03-18T20:20:29.432Z,9.10
2019-03-18T20:23:00.402Z,10.07
2019-03-18T20:25:31.395Z,12.07
2019-03-18T20:28:01.825Z,8.80
2019-03-18T20:30:33.156Z,10.17
2019-03-18T20:33:03.518Z,11.07
2019-03-18T20:35:33.646Z,6.97
2019-03-18T20:38:06.076Z,6.13
2019-03-18T20:40:37.607Z,12.03
2019-03-18T20:43:08.978Z,7.90
2019-03-18T20:45:40.830Z,5.67
2019-03-18T20:48:12.133Z,6.83
2019-03-18T20:50:43.373Z,8.57
2019-03-18T20:53:14.826Z,9.73
2019-03-18T20:55:46.178Z,5.00
2019-03-18T20:58:17.369Z,9.00
2019-03-18T21:00:48.633Z,7.77
2019-03-18T21:03:20.694Z,5.77
2019-03-18T21:05:51.913Z,9.70
2019-03-18T21:08:24.501Z,4.00
2019-03-18T21:10:55.949Z,7.20
2019-03-18T21:13:28.642Z,6.23
2019-03-18T21:16:00.097Z,9.27
2019-03-18T21:18:31.257Z,9.87
2019-03-18T21:21:21.370Z,9.30
2019-03-18T21:23:53.039Z,10.30
2019-03-18T21:26:24.119Z,10.80
2019-03-18T21:28:55.161Z,9.47
2019-03-18T21:31:26.298Z,11.13
2019-03-18T21:33:57.506Z,5.03
2019-03-18T21:36:37.461Z,8.40
2019-03-18T21:38:59.866Z,9.27
2019-03-18T21:41:30.689Z,4.57
2019-03-18T21:44:01.886Z,9.70
2019-03-18T21:46:33.018Z,8.23
2019-03-18T21:49:03.486Z,4.20
2019-03-18T21:51:35.118Z,5.67
2019-03-18T21:54:06.557Z,9.93
2019-03-18T21:56:38.674Z,8.67
2019-03-18T21:59:09.308Z,5.03
2019-03-18T22:01:39.463Z,6.20
2019-03-18T22:04:10.253Z,9.07
2019-03-18T22:06:41.194Z,9.27
2019-03-18T22:09:12.082Z,8.50
2019-03-18T22:11:42.306Z,5.50
2019-03-18T22:14:13.147Z,9.67
2019-03-18T22:16:43.473Z,13.47
2019-03-18T22:19:15.755Z,12.73
2019-03-18T22:21:45.972Z,8.40
2019-03-18T22:24:16.242Z,11.97
2019-03-18T22:26:46.352Z,11.50
2019-03-18T22:29:17.458Z,11.50
2019-03-18T22:31:47.762Z,11.57
2019-03-18T22:34:18.408Z,6.80
2019-03-18T22:36:49.326Z,7.90
2019-03-18T22:39:19.595Z,10.37
2019-03-18T22:41:50.350Z,13.20
2019-03-18T22:44:21.607Z,10.47
2019-03-18T22:46:52.563Z,14.53
2019-03-18T22:49:23.478Z,15.70
2019-03-18T22:51:54.407Z,11.77
2019-03-18T22:54:25.363Z,15.70
2019-03-18T22:56:56.639Z,13.10
2019-03-18T22:59:27.660Z,14.27
2019-03-18T23:01:58.675Z,14.20
2019-03-18T23:04:29.644Z,14.83
2019-03-18T23:07:00.555Z,10.43
2019-03-18T23:09:31.504Z,9.17
2019-03-18T23:12:02.409Z,9.40
2019-03-18T23:14:33.433Z,13.43
2019-03-18T23:17:04.375Z,13.33
2019-03-18T23:19:35.395Z,5.37
2019-03-18T23:22:06.316Z,11.70
2019-03-18T23:24:37.230Z,6.50
2019-03-18T23:27:07.601Z,7.83
2019-03-18T23:29:38.334Z,13.23
2019-03-18T23:32:09.258Z,13.83
2019-03-18T23:34:40.176Z,12.03
2019-03-18T23:37:11.126Z,11.73
2019-03-18T23:39:42.046Z,9.97
2019-03-18T23:42:12.954Z,8.43
2019-03-18T23:44:43.883Z,9.70
2019-03-18T23:47:14.797Z,14.40
2019-03-18T23:49:47.467Z,11.17
2019-03-18T23:52:18.363Z,10.93
2019-03-18T23:54:49.289Z,8.70
2019-03-18T23:57:20.219Z,6.87
2019-03-18T23:59:51.139Z,12.10
